Airfield :







YOU CAN JOIN US ON...

 
LOGIN :

Register | Disclaimer

   EN    FR    IT 

 









Legend :    VFR   Marginal VFR   IFR   Intensive IFR   Very Intensive IFR
Visi :
Ceiling :
>= 8 km
>= 3000ft
5 to 8 km
1000 to 3000 ft
1500m to 5 km
500 to 1000 ft
800 to 1500m
200 to 500 ft
< 800m
< 200 ft
Symbols :   Thunderstorms  Fog  Heavy snow  Heavy precipitations  Wind > 20 kt






- Airport Elevation : 271 ft


KBAF - Barnes Municipal

CURRENT METAR :
  • 161729Z VRB05KT 10SM SCT026 OVC033 25/18 A3025 RMK AO2 T02500183

EXPIRED METARs :
  • 161653Z 04004KT 10SM BKN022 BKN028 23/18 A3026 RMK AO2 SLP244 T02280183
  • 161553Z 05007KT 10SM SCT022 23/18 A3024 RMK AO2 SLP240 T02330178
  • 161505Z 01007KT 10SM SCT015 BKN020 21/18 A3025 RMK AO2 T02110178
  • 161453Z 02008KT 10SM BKN013 22/18 A3025 RMK AO2 SLP241 T02220183 51019

TAF KBAF
Valid from the 16 at 18:00 until the 17 at 18:00 UTC


161721Z 1618/1718 04004KT P6SM BKN022 BKN028
FM161900 07004KT P6SM BKN020
FM170200 05004KT 5SM BR BKN008
FM171700 05004KT P6SM BKN015
KZBW FIR / North America



MET'MAP, your aeronautical weather chart ! - Copyright ORBIFLY December 2007 - Disclaimer

ORBIFLY MET'MAP TEAM :

Programming & Development : Alexandra Zaïnal
Concept & original design : Baudouin d'Aumeries
Assistance for programming : Marc-Olivier Méhu
Technical & hardware support : Manuel Goepfert

Contact : metmap@orbifly.com




SOURCES & CREDITS :

   NOAA